Latest Weather Observations for Middle Percy Island

IDQ60801

Issued at 10:22 pm EST Wednesday 25 May 2022 (issued every 10 minutes, with the page automatically refreshed every 10 minutes)

About weather observations | Map of weather stations | Latest weather observations for QLD | Other Formats
Station Details ID: 200001 Name: MIDDLE PERCY ISLAND Lat: -21.66 Lon: 150.27 Height: 208.7 m
Data from the previous 72 hours. | See also: Recent months at Middle Percy Island
Date/Time
EST
Temp
°C
App
Temp
°C
Dew
Point
°C
Rel
Hum
%
Delta-T
°C
Wind Press
QNH
hPa
Press
MSL
hPa
Rain since
9am
mm
Dir  Spd
km/h
Gust
km/h
Spd
kts
Gust
kts
25/10:00pm 20.5 18.9 19.2 92 0.8 SSE 26 33 14 18 1015.8 1014.9 0.2
25/09:30pm 20.5 18.5 19.2 92 0.8 SSE 28 37 15 20 1015.8 1014.9 0.2
25/09:00pm 20.5 18.8 19.0 91 1.0 SSE 26 35 14 19 1015.9 1015.0 0.2
25/08:30pm 20.6 18.7 19.4 93 0.8 SSE 28 39 15 21 1015.9 1015.0 0.2
25/08:00pm 20.4 18.8 19.2 93 0.8 SSE 26 37 14 20 1016.0 1015.1 0.2
25/07:30pm 20.4 18.8 19.1 92 0.8 SSE 26 37 14 20 1015.9 1015.0 0.2
25/07:00pm 20.4 18.0 19.1 92 0.8 SSE 30 41 16 22 1015.9 1015.0 0.2
25/06:30pm 20.2 18.9 19.0 93 0.8 SSE 24 37 13 20 1015.9 1015.0 0.2
25/06:00pm 20.3 17.8 18.8 91 0.9 SSE 30 39 16 21 1015.6 1014.7 0.2
25/05:30pm 20.2 17.6 18.7 91 0.9 SSE 30 39 16 21 1015.4 1014.5 0.2
25/05:00pm 20.3 18.6 19.0 92 0.8 SSE 26 39 14 21 1015.0 1014.2 0.2
25/04:30pm 20.8 19.2 19.1 90 1.1 SSE 26 35 14 19 1015.0 1014.2 0.2
25/04:00pm 20.8 18.2 18.7 88 1.3 SSE 30 39 16 21 1014.6 1013.8 0.2
25/03:30pm 21.1 18.2 18.9 87 1.4 SSE 32 41 17 22 1014.4 1013.6 0.2
25/03:00pm 21.5 19.5 19.2 87 1.5 SSE 28 37 15 20 1014.6 1013.8 0.2
25/02:30pm 21.5 18.7 19.1 86 1.5 SSE 32 43 17 23 1014.6 1013.8 0.2
25/02:00pm 21.1 18.0 18.9 87 1.4 SSE 33 44 18 24 1014.7 1013.9 0.2
25/01:30pm 21.4 18.6 19.1 87 1.5 SSE 32 41 17 22 1015.0 1014.2 0.2
25/01:00pm 22.1 20.5 20.0 88 1.4 SSE 28 35 15 19 1015.4 1014.5 0.2
25/12:30pm 21.3 18.5 19.4 89 1.2 SSE 33 48 18 26 1015.2 1014.4 0.2
25/12:00pm 21.3 18.8 19.8 91 1.0 SSE 32 43 17 23 1016.0 1015.1 0.2
25/11:30am 20.8 19.6 20.1 96 0.5 S 26 35 14 19 1016.5 1015.6 0.2
25/11:00am 20.0 18.2 19.5 97 0.3 S 28 37 15 20 1016.9 1016.0 0.2
25/10:30am 20.5 18.7 19.5 94 0.6 SSE 28 35 15 19 1017.2 1016.4 0.0
25/10:00am 20.2 18.7 19.5 96 0.4 SSE 26 35 14 19 1017.5 1016.7 0.0
25/09:30am 19.9 18.0 19.4 97 0.3 SSE 28 37 15 20 1017.7 1016.9 0.0
25/09:00am 19.7 16.9 19.4 98 0.2 S 33 41 18 22 1017.8 1017.0 5.6
25/08:30am 19.7 17.1 19.4 98 0.2 S 32 41 17 22 1017.8 1017.0 5.6
25/08:00am 19.5 17.9 19.2 98 0.2 S 26 33 14 18 1017.5 1016.7 5.6
25/07:30am 19.6 17.6 19.1 97 0.3 S 28 37 15 20 1017.2 1016.4 5.6
25/07:00am 19.4 17.4 19.1 98 0.2 S 28 37 15 20 1017.2 1016.4 5.4
25/06:30am 19.3 17.7 19.1 99 0.1 S 26 35 14 19 1016.7 1015.8 5.4
25/06:00am 19.4 17.4 19.1 98 0.2 SSE 28 35 15 19 1016.3 1015.4 5.4
25/05:30am 19.8 18.0 19.5 98 0.2 SSE 28 37 15 20 1016.2 1015.3 5.4
25/05:00am 19.8 18.3 19.5 98 0.2 SSE 26 35 14 19 1015.8 1014.9 5.4
25/04:30am 19.7 17.4 19.4 98 0.2 S 30 39 16 21 1015.9 1015.0 5.4
25/04:00am 19.8 18.7 19.5 98 0.2 SSE 24 32 13 17 1016.1 1015.2 5.2
25/03:30am 19.9 18.0 19.4 97 0.3 SSE 28 39 15 21 1016.0 1015.1 5.2
25/03:00am 19.7 19.0 19.4 98 0.2 SSE 22 32 12 17 1015.8 1014.9 5.2
25/02:30am 19.7 17.8 19.4 98 0.2 SSE 28 39 15 21 1015.8 1014.9 5.2
25/02:00am 19.0 17.5 18.5 97 0.3 SE 24 37 13 20 1015.9 1015.0 5.2
25/01:30am 19.8 18.2 19.3 97 0.3 SSE 26 37 14 20 1016.5 1015.6 3.6
25/01:00am 20.1 18.2 19.3 95 0.5 SSE 28 35 15 19 1016.9 1016.0 3.4
25/12:30am 20.0 18.6 19.7 98 0.2 S 26 35 14 19 1017.1 1016.3 3.4
25/12:00am 20.1 18.3 19.6 97 0.3 S 28 37 15 20 1017.2 1016.4 2.4
 
Date/Time
EST
Temp
°C
App
Temp
°C
Dew
Point
°C
Rel
Hum
%
Delta-T
°C
Wind Press
QNH
hPa
Press
MSL
hPa
Rain since
9am
mm
Dir  Spd
km/h
Gust
km/h
Spd
kts
Gust
kts
24/11:30pm 20.2 18.2 19.2 94 0.6 SSE 28 41 15 22 1017.4 1016.6 2.2
24/11:00pm 19.7 18.1 19.2 97 0.3 SSE 26 37 14 20 1017.6 1016.8 2.2
24/10:30pm 19.5 18.3 19.2 98 0.2 SSE 24 35 13 19 1017.9 1017.1 2.0
24/10:05pm 19.6 17.1 18.9 96 0.4 ESE 30 48 16 26 1018.0 1017.2 0.8
24/10:00pm 19.8 17.4 19.0 95 0.5 SE 30 48 16 26 1018.0 1017.2 0.8
24/09:56pm 20.5 18.0 18.8 90 1.1 SSE 30 48 16 26 1018.0 1017.2 0.4
24/09:30pm 20.8 17.9 18.9 89 1.2 SSE 32 41 17 22 1018.0 1017.2 0.4
24/09:00pm 20.7 18.7 19.2 91 1.0 SSE 28 37 15 20 1018.0 1017.2 0.4
24/08:30pm 20.6 18.1 18.9 90 1.1 SSE 30 41 16 22 1018.0 1017.2 0.4
24/08:00pm 20.7 18.4 19.4 92 0.8 SSE 30 41 16 22 1017.8 1017.0 0.4
24/07:30pm 20.6 18.6 19.1 91 1.0 SSE 28 35 15 19 1017.5 1016.7 0.4
24/07:00pm 20.4 18.1 18.5 89 1.2 SSE 28 39 15 21 1017.2 1016.4 0.4
24/06:30pm 20.4 17.4 17.8 85 1.6 SSE 30 39 16 21 1016.9 1016.0 0.4
24/06:00pm 20.4 18.4 18.2 87 1.4 SSE 26 35 14 19 1016.6 1015.7 0.4
24/05:30pm 20.4 18.0 18.2 87 1.4 SSE 28 37 15 20 1016.3 1015.4 0.4
24/05:00pm 20.6 18.4 18.7 89 1.2 SSE 28 39 15 21 1016.0 1015.1 0.4
24/04:30pm 20.9 18.4 18.8 88 1.3 SSE 30 44 16 24 1015.8 1014.9 0.4
24/04:00pm 21.1 19.1 19.2 89 1.2 SSE 28 39 15 21 1015.5 1014.6 0.4
24/03:30pm 21.7 19.9 19.6 88 1.3 SSE 28 37 15 20 1015.4 1014.5 0.4
24/03:00pm 21.9 19.7 19.5 86 1.5 SSE 30 41 16 22 1015.2 1014.4 0.4
24/02:30pm 22.4 19.7 19.6 84 1.8 SSE 33 44 18 24 1015.1 1014.3 0.4
24/02:00pm 22.6 20.0 19.4 82 2.1 SSE 32 44 17 24 1015.0 1014.2 0.4
24/01:30pm 22.3 19.6 19.7 85 1.7 SSE 33 44 18 24 1015.0 1014.2 0.4
24/01:00pm 21.9 19.8 19.8 88 1.4 SSE 30 41 16 22 1015.4 1014.5 0.4
24/12:34pm 22.2 20.1 19.7 86 1.6 SSE 30 50 16 27 1015.8 1014.9 0.4
24/12:30pm 22.0 19.2 19.5 86 1.6 SSE 33 50 18 27 1015.9 1015.0 0.4
24/12:00pm 21.9 19.4 19.8 88 1.4 SSE 32 50 17 27 1016.3 1015.4 0.4
24/11:30am 21.3 18.1 19.4 89 1.2 SSE 35 44 19 24 1016.5 1015.6 0.4
24/11:00am 20.9 18.9 19.2 90 1.1 S 28 41 15 22 1016.9 1016.0 0.4
24/10:30am 20.5 17.6 19.2 92 0.8 SSE 33 46 18 25 1017.1 1016.3 0.4
24/10:00am 19.8 17.1 19.3 97 0.3 SSE 32 44 17 24 1017.2 1016.4 0.4
24/09:30am 19.6 17.0 19.4 99 0.1 SSE 32 46 17 25 1017.4 1016.6 0.2
24/09:00am 19.4 16.5 19.2 99 0.1 SSE 33 43 18 23 1017.2 1016.4 1.0
24/08:30am 19.4 16.0 19.1 98 0.2 S 35 46 19 25 1017.1 1016.3 1.0
24/08:00am 19.3 15.3 18.6 96 0.4 S 37 50 20 27 1016.8 1015.9 1.0
24/07:30am 19.1 14.3 18.3 95 0.5 S 41 52 22 28 1016.5 1015.6 1.0
24/07:00am 18.9 14.3 18.1 95 0.5 S 39 50 21 27 1016.1 1015.2 1.0
24/06:30am 18.9 14.0 18.1 95 0.5 S 41 54 22 29 1015.9 1015.0 1.0
24/06:00am 18.9 14.3 18.1 95 0.5 S 39 50 21 27 1015.8 1014.9 1.0
24/05:30am 19.0 14.8 18.0 94 0.6 S 37 52 20 28 1015.5 1014.6 1.0
24/05:00am 19.0 14.7 17.8 93 0.7 S 37 48 20 26 1015.2 1014.4 1.0
24/04:30am 19.0 15.2 18.0 94 0.6 S 35 52 19 28 1015.4 1014.5 1.0
24/04:00am 18.9 14.9 17.7 93 0.7 S 35 48 19 26 1015.4 1014.5 1.0
24/03:30am 18.9 15.5 17.7 93 0.7 S 32 48 17 26 1015.7 1014.8 1.0
24/03:00am 18.9 14.9 17.6 92 0.8 S 35 48 19 26 1015.6 1014.7 1.0
24/02:30am 19.0 15.5 17.8 93 0.7 S 33 43 18 23 1015.8 1014.9 1.0
24/02:00am 19.0 15.0 17.7 92 0.8 S 35 46 19 25 1016.0 1015.1 1.0
24/01:30am 18.8 15.0 18.0 95 0.5 S 35 52 19 28 1016.3 1015.4 1.0
24/01:00am 18.8 14.6 18.1 96 0.4 S 37 50 20 27 1016.4 1015.5 1.0
24/12:30am 18.8 14.2 18.1 96 0.4 S 39 52 21 28 1016.5 1015.6 1.0
24/12:00am 18.5 14.7 18.0 97 0.3 S 35 46 19 25 1016.8 1015.9 1.0
 
Date/Time
EST
Temp
°C
App
Temp
°C
Dew
Point
°C
Rel
Hum
%
Delta-T
°C
Wind Press
QNH
hPa
Press
MSL
hPa
Rain since
9am
mm
Dir  Spd
km/h
Gust
km/h
Spd
kts
Gust
kts
23/11:39pm 18.6 14.7 17.8 95 0.5 S 35 54 19 29 1017.0 1016.1 1.0
23/11:30pm 18.7 14.5 18.0 96 0.4 S 37 56 20 30 1017.0 1016.1 1.0
23/11:00pm 18.1 13.5 17.9 99 0.1 S 39 52 21 28 1017.1 1016.3 1.0
23/10:46pm 18.3 14.5 18.1 99 0.1 S 35 54 19 29 1017.3 1016.5 0.8
23/10:30pm 18.2 13.2 17.9 98 0.2 S 41 52 22 28 1017.2 1016.4 0.6
23/10:00pm 18.7 13.2 18.2 97 0.3 S 44 57 24 31 1017.0 1016.1 0.4
23/09:35pm 18.3 12.8 17.7 96 0.4 S 43 61 23 33 1017.2 1016.4 0.2
23/09:30pm 18.4 12.4 17.9 97 0.3 S 46 63 25 34 1017.1 1016.3 0.2
23/09:00pm 18.9 12.5 17.9 94 0.6 S 48 61 26 33 1017.2 1016.4 0.2
23/08:30pm 19.2 13.9 17.3 89 1.2 S 41 56 22 30 1017.3 1016.5 0.2
23/08:15pm 19.6 14.0 17.4 87 1.4 S 43 61 23 33 1017.4 1016.6 0.2
23/08:00pm 19.4 14.0 17.9 91 0.9 SSE 43 59 23 32 1017.1 1016.3 0.2
23/07:30pm 19.6 15.0 18.1 91 0.9 S 39 54 21 29 1017.0 1016.1 0.2
23/07:10pm 19.6 15.9 18.3 92 0.8 S 35 54 19 29 1017.0 1016.1 0.2
23/07:00pm 19.4 16.2 18.1 92 0.8 S 32 43 17 23 1017.2 1016.4 0.2
23/06:30pm 19.6 14.6 17.9 90 1.1 S 41 52 22 28 1016.9 1016.0 0.2
23/06:06pm 19.4 13.9 18.2 93 0.7 S 44 63 24 34 1016.5 1015.6 0.2
23/06:00pm 19.4 13.4 17.9 91 0.9 S 46 63 25 34 1016.1 1015.2 0.2
23/05:30pm 19.6 14.9 18.6 94 0.6 S 41 54 22 29 1016.4 1015.5 0.2
23/05:00pm 19.7 14.9 18.5 93 0.8 S 41 52 22 28 1016.1 1015.2 0.2
23/04:30pm 20.0 14.8 18.7 92 0.8 S 44 56 24 30 1015.8 1014.9 0.2
23/04:00pm 20.3 15.7 18.8 91 0.9 S 41 54 22 29 1015.8 1014.9 0.2
23/03:30pm 20.6 15.9 18.7 89 1.2 S 41 52 22 28 1015.8 1014.9 0.2
23/03:00pm 20.6 16.6 18.5 88 1.3 S 37 46 20 25 1015.8 1014.9 0.2
23/02:30pm 20.3 17.7 19.5 95 0.5 S 32 41 17 22 1015.8 1014.9 0.2
23/02:00pm 19.7 16.9 19.5 99 0.1 S 33 41 18 22 1016.0 1015.1 0.2
23/01:30pm 19.7 17.9 19.5 99 0.1 SSE 28 35 15 19 1016.0 1015.1 0.2
23/01:00pm 20.0 17.2 19.5 97 0.3 S 33 46 18 25 1016.0 1015.1 0.2
23/12:30pm 19.9 17.2 19.7 99 0.1 S 33 43 18 23 1016.4 1015.5 0.2
23/12:00pm 19.5 16.2 19.3 99 0.1 S 35 43 19 23 1016.9 1016.0 0.2
23/11:30am 19.5 16.6 19.3 99 0.1 S 33 44 18 24 1017.2 1016.4 0.2
23/11:00am 19.2 15.8 19.0 99 0.1 S 35 44 19 24 1017.4 1016.6 0.0
23/10:30am 19.4 17.0 19.2 99 0.1 S 30 41 16 22 1017.8 1017.0 0.0
23/10:00am 19.5 17.1 19.0 97 0.3 S 30 39 16 21 1018.1 1017.3 0.0
23/09:30am 19.6 17.0 18.6 94 0.6 S 30 39 16 21 1018.3 1017.5 0.0
23/09:00am 19.7 17.0 18.5 93 0.8 S 30 39 16 21 1018.3 1017.5 0.2
23/08:30am 19.5 16.4 18.3 93 0.7 SSE 32 43 17 23 1017.8 1017.0 0.2
23/08:00am 19.4 16.2 18.2 93 0.7 S 32 43 17 23 1017.7 1016.9 0.2
23/07:30am 19.2 15.5 18.4 95 0.5 S 35 44 19 24 1017.4 1016.6 0.2
23/07:00am 19.2 16.0 18.5 96 0.4 S 33 43 18 23 1017.2 1016.4 0.2
23/06:30am 19.1 15.4 18.4 96 0.4 S 35 44 19 24 1016.7 1015.8 0.2
23/06:00am 19.1 15.4 18.4 96 0.4 SSE 35 44 19 24 1016.4 1015.5 0.2
23/05:30am 19.3 16.1 18.5 95 0.5 SSE 33 43 18 23 1016.1 1015.2 0.2
23/05:00am 19.4 16.4 18.6 95 0.5 SSE 32 41 17 22 1016.1 1015.2 0.2
23/04:30am 19.2 15.8 18.2 94 0.6 SSE 33 46 18 25 1015.6 1014.7 0.2
23/04:00am 19.4 16.2 18.2 93 0.7 SSE 32 43 17 23 1015.6 1014.7 0.2
23/03:30am 19.6 16.9 18.4 93 0.8 S 30 39 16 21 1015.6 1014.7 0.2
23/03:00am 19.8 16.7 18.3 91 0.9 S 32 43 17 23 1015.9 1015.0 0.2
23/02:30am 19.8 17.2 18.6 93 0.8 SSE 30 37 16 20 1016.0 1015.1 0.2
23/02:00am 20.0 17.8 18.7 92 0.8 SSE 28 37 15 20 1016.1 1015.2 0.2
23/01:30am 20.0 17.8 18.8 93 0.8 SSE 28 39 15 21 1016.4 1015.5 0.2
23/01:00am 19.9 18.8 19.4 97 0.3 SSE 24 32 13 17 1016.4 1015.5 0.2
23/12:30am 20.2 17.8 19.2 94 0.6 SSE 30 41 16 22 1016.3 1015.4 0.0
23/12:00am 20.6 19.2 18.9 90 1.1 SSE 24 33 13 18 1016.4 1015.5 0.0
 
Date/Time
EST
Temp
°C
App
Temp
°C
Dew
Point
°C
Rel
Hum
%
Delta-T
°C
Wind Press
QNH
hPa
Press
MSL
hPa
Rain since
9am
mm
Dir  Spd
km/h
Gust
km/h
Spd
kts
Gust
kts
22/11:30pm 21.1 19.4 18.9 87 1.4 SSE 26 35 14 19 1016.6 1015.7 0.0
22/11:00pm 21.2 18.2 18.6 85 1.6 SSE 32 48 17 26 1016.4 1015.5 0.0
22/10:30pm 21.1 18.6 18.9 87 1.4 SSE 30 39 16 21 1016.5 1015.6 0.0

Other formats

Comma delimited format used in spreadsheet applications
http://www.bom.gov.au/fwo/IDQ60801/IDQ60801.94372.axf

JavaScript Object Notation format (JSON) in row-major order
http://www.bom.gov.au/fwo/IDQ60801/IDQ60801.94372.json

Data quality

Most of these data are generated automatically and are frequently updated. Quality checks on data are not normally performed. It is possible for incorrect values to appear. Refer to information at About Latest Weather Observations and please check the disclaimer before using these data.